Time;durP1;ratioP1;P1;durP2;ratioP2;P2;SDS_P1;SDS_P2;PMS_P1;PMS_P2;Temp;Humidity;BMP_temperature;BMP_pressure;BME280_temperature;BME280_humidity;BME280_pressure;Samples;Min_cycle;Max_cycle;Signal;HPM_P1;HPM_P2
2023/12/30 00:01:21;;;;;;;9.20;1.63;;;;;;;6.99;100.00;100814.47;5082009;28;20071;-80
2023/12/30 00:03:47;;;;;;;10.57;1.30;;;;;;;6.95;100.00;100810.53;5081809;28;20063;-80
2023/12/30 00:06:15;;;;;;;12.35;1.90;;;;;;;6.94;100.00;100811.53;5082567;28;20036;-80
2023/12/30 00:08:40;;;;;;;12.80;1.50;;;;;;;6.91;100.00;100822.72;5081348;28;20028;-80
2023/12/30 00:11:06;;;;;;;8.83;1.00;;;;;;;6.95;100.00;100818.63;5098807;28;20042;-80
2023/12/30 00:13:31;;;;;;;7.35;1.08;;;;;;;6.95;100.00;100823.16;5116680;28;20038;-79
2023/12/30 00:15:57;;;;;;;6.80;1.30;;;;;;;6.95;100.00;100828.56;5098102;28;20051;-80
2023/12/30 00:18:22;;;;;;;6.43;1.10;;;;;;;6.92;100.00;100828.94;5098951;28;20043;-79
2023/12/30 00:20:47;;;;;;;14.13;1.27;;;;;;;6.90;100.00;100826.44;5081405;28;20048;-80
2023/12/30 00:23:13;;;;;;;7.57;0.70;;;;;;;6.94;100.00;100825.03;5081123;28;20110;-80
2023/12/30 00:25:38;;;;;;;11.75;1.50;;;;;;;6.96;100.00;100832.94;5081837;28;20375;-80
2023/12/30 00:28:04;;;;;;;11.75;1.23;;;;;;;6.91;100.00;100836.19;5097991;28;20161;-80
2023/12/30 00:30:29;;;;;;;11.30;1.33;;;;;;;6.90;100.00;100847.19;5098041;28;20043;-80
2023/12/30 00:32:55;;;;;;;10.00;1.07;;;;;;;6.90;100.00;100839.91;5081686;28;20096;-80
2023/12/30 00:35:21;;;;;;;9.10;0.87;;;;;;;6.87;100.00;100842.19;5116289;28;20481;-80
2023/12/30 00:37:46;;;;;;;8.85;1.17;;;;;;;6.87;100.00;100852.97;5116512;28;20035;-80
2023/12/30 00:40:12;;;;;;;10.63;1.00;;;;;;;6.90;100.00;100855.28;5097845;28;20057;-80
2023/12/30 00:42:37;;;;;;;6.27;0.87;;;;;;;6.88;100.00;100852.78;5098392;28;20027;-80
2023/12/30 00:45:03;;;;;;;6.47;1.25;;;;;;;6.91;100.00;100854.22;5098127;28;20073;-81
2023/12/30 00:47:29;;;;;;;14.05;2.13;;;;;;;6.88;100.00;100851.91;5115765;28;20028;-80
2023/12/30 00:49:54;;;;;;;6.70;0.90;;;;;;;6.88;100.00;100852.78;5080763;28;20435;-80
2023/12/30 00:52:19;;;;;;;7.63;0.95;;;;;;;6.82;100.00;100862.44;5115906;28;20041;-80
2023/12/30 00:54:45;;;;;;;7.15;1.25;;;;;;;6.80;100.00;100863.66;5081829;28;20070;-80
2023/12/30 00:57:10;;;;;;;15.00;1.80;;;;;;;6.82;100.00;100865.16;5116049;28;20114;-80
2023/12/30 00:59:35;;;;;;;10.90;1.57;;;;;;;6.81;100.00;100870.72;5097863;28;20027;-80
2023/12/30 01:02:01;;;;;;;10.40;1.23;;;;;;;6.84;100.00;100868.47;5080597;28;20088;-80
2023/12/30 01:04:26;;;;;;;13.37;1.50;;;;;;;6.86;100.00;100892.56;5097945;28;20030;-80
2023/12/30 01:06:52;;;;;;;11.45;0.90;;;;;;;6.91;100.00;100882.06;5097723;28;20516;-80
2023/12/30 01:09:17;;;;;;;9.57;1.10;;;;;;;6.88;100.00;100863.56;5080410;28;20428;-80
2023/12/30 01:11:42;;;;;;;8.77;1.50;;;;;;;6.88;100.00;100900.47;5097118;28;20024;-80
2023/12/30 01:14:08;;;;;;;9.93;1.20;;;;;;;6.90;100.00;100874.16;5097588;28;20074;-80
2023/12/30 01:16:36;;;;;;;10.23;1.60;;;;;;;6.92;100.00;100885.56;5080081;28;20052;-80
2023/12/30 01:19:01;;;;;;;8.10;1.42;;;;;;;6.98;100.00;100887.50;5114774;28;20448;-80
2023/12/30 01:21:27;;;;;;;15.15;1.45;;;;;;;7.03;100.00;100877.81;5115293;28;20028;-80
2023/12/30 01:23:52;;;;;;;8.13;1.20;;;;;;;7.02;100.00;100896.91;5115422;28;20101;-80
2023/12/30 01:26:17;;;;;;;8.93;1.20;;;;;;;7.06;100.00;100897.34;5097176;28;20032;-80
2023/12/30 01:28:43;;;;;;;11.83;1.93;;;;;;;7.11;100.00;100903.84;5097498;28;20112;-80
2023/12/30 01:31:08;;;;;;;11.40;1.50;;;;;;;7.16;100.00;100906.81;5115179;28;20100;-80
2023/12/30 01:33:33;;;;;;;11.87;1.53;;;;;;;7.13;100.00;100906.34;5096682;28;20045;-80
2023/12/30 01:35:59;;;;;;;11.07;1.48;;;;;;;7.11;100.00;100919.19;5096521;28;20403;-80
2023/12/30 01:38:24;;;;;;;9.73;1.30;;;;;;;7.13;100.00;100915.28;5096896;28;20044;-80
2023/12/30 01:40:50;;;;;;;13.33;1.80;;;;;;;7.11;100.00;100920.03;5096928;28;20031;-80
2023/12/30 01:43:41;;;;;;;12.77;1.43;;;;;;;7.06;100.00;100913.53;5096810;28;20419;-80
2023/12/30 01:46:09;;;;;;;16.15;1.80;;;;;;;7.02;100.00;100916.59;5093846;28;20043;-80
2023/12/30 01:48:36;;;;;;;13.25;1.42;;;;;;;7.08;100.00;100915.00;5115059;28;20027;-80
2023/12/30 01:51:02;;;;;;;11.07;1.43;;;;;;;7.07;100.00;100916.06;5096755;28;20031;-82
2023/12/30 01:53:31;;;;;;;14.98;1.70;;;;;;;7.04;100.00;100916.41;5096859;28;20036;-80
2023/12/30 01:55:57;;;;;;;13.98;1.80;;;;;;;6.98;100.00;100917.19;5114799;28;20039;-80
2023/12/30 01:58:23;;;;;;;13.80;1.70;;;;;;;6.93;100.00;100919.63;5115247;28;20028;-80
2023/12/30 02:00:49;;;;;;;13.23;1.25;;;;;;;6.90;100.00;100915.44;5096637;28;20042;-80
2023/12/30 02:03:17;;;;;;;12.02;1.20;;;;;;;6.89;100.00;100926.41;5114622;28;20027;-80
2023/12/30 02:05:45;;;;;;;13.53;1.60;;;;;;;6.82;100.00;100924.47;5080145;28;20152;-80
2023/12/30 02:08:11;;;;;;;10.52;1.90;;;;;;;6.80;100.00;100931.09;5096149;28;20031;-80
2023/12/30 02:10:36;;;;;;;15.05;1.38;;;;;;;6.84;100.00;100937.78;5096930;28;20050;-80
2023/12/30 02:13:02;;;;;;;10.77;1.03;;;;;;;6.90;100.00;100931.63;5096253;28;20053;-80
2023/12/30 02:15:27;;;;;;;13.60;1.20;;;;;;;6.97;100.00;100931.72;5095876;28;20043;-80
2023/12/30 02:17:56;;;;;;;14.43;1.10;;;;;;;6.99;100.00;100930.47;5095954;28;20093;-80
2023/12/30 02:20:22;;;;;;;7.95;1.40;;;;;;;7.08;100.00;100928.50;5078997;28;20034;-80
2023/12/30 02:22:48;;;;;;;8.50;1.10;;;;;;;7.11;100.00;100933.53;5114313;28;20027;-80
2023/12/30 02:25:14;;;;;;;10.88;1.63;;;;;;;7.10;100.00;100933.72;5079266;28;20070;-80
2023/12/30 02:27:43;;;;;;;14.70;1.70;;;;;;;7.07;100.00;100966.47;5096184;28;20032;-80
2023/12/30 02:30:10;;;;;;;8.90;1.30;;;;;;;6.88;100.00;100938.22;5095911;28;20043;-80
2023/12/30 02:32:35;;;;;;;10.48;2.17;;;;;;;6.31;100.00;100952.19;5079208;28;20031;-79
2023/12/30 02:35:01;;;;;;;13.43;1.87;;;;;;;6.02;100.00;100971.84;5096054;28;20027;-79
2023/12/30 02:37:27;;;;;;;9.85;2.00;;;;;;;5.87;100.00;100961.00;5114422;28;20507;-79
2023/12/30 02:39:53;;;;;;;7.97;2.00;;;;;;;5.82;100.00;100963.41;5112806;28;20138;-79
2023/12/30 02:42:18;;;;;;;11.07;2.13;;;;;;;5.82;100.00;100970.63;5095844;28;20032;-79
2023/12/30 02:44:44;;;;;;;11.87;1.70;;;;;;;5.83;100.00;100966.94;5113834;28;20031;-79
2023/12/30 02:47:09;;;;;;;20.98;2.67;;;;;;;5.84;100.00;100972.16;5095723;28;20712;-79
2023/12/30 02:49:34;;;;;;;11.50;1.97;;;;;;;5.86;100.00;100971.97;5113649;28;20064;-79
2023/12/30 02:52:00;;;;;;;18.70;2.40;;;;;;;5.86;100.00;100972.81;5095969;28;20027;-79
2023/12/30 02:54:27;;;;;;;23.50;2.00;;;;;;;5.89;100.00;100977.84;5096097;28;20036;-79
2023/12/30 02:56:52;;;;;;;15.13;2.07;;;;;;;5.90;100.00;100976.81;5113677;28;20035;-79
2023/12/30 02:59:17;;;;;;;9.05;1.13;;;;;;;5.86;100.00;100972.81;5078908;28;20579;-79
2023/12/30 03:01:43;;;;;;;25.73;2.22;;;;;;;5.84;100.00;100980.22;5078838;28;20039;-79
2023/12/30 03:04:08;;;;;;;19.60;1.50;;;;;;;5.79;100.00;100972.69;5095585;28;20043;-79
2023/12/30 03:06:34;;;;;;;13.90;1.50;;;;;;;5.76;100.00;100981.13;5095797;28;20034;-79
2023/12/30 03:09:02;;;;;;;20.53;1.97;;;;;;;5.74;100.00;100985.00;5096150;28;20036;-79
2023/12/30 03:11:27;;;;;;;15.18;1.92;;;;;;;5.73;100.00;100984.19;5095893;28;20039;-79
2023/12/30 03:13:53;;;;;;;18.43;2.13;;;;;;;5.71;100.00;100983.50;5078930;28;20031;-79
2023/12/30 03:16:19;;;;;;;16.75;1.60;;;;;;;5.67;100.00;100982.22;5095154;28;20491;-79
2023/12/30 03:18:45;;;;;;;19.60;2.25;;;;;;;5.70;100.00;100981.00;5095944;28;20464;-81
2023/12/30 03:21:13;;;;;;;13.20;2.08;;;;;;;5.69;100.00;100987.41;5078215;28;20472;-79
2023/12/30 03:23:38;;;;;;;14.50;1.52;;;;;;;5.63;100.00;100989.81;5113519;28;20085;-79
2023/12/30 03:26:05;;;;;;;18.93;1.47;;;;;;;5.62;100.00;100995.38;5113987;28;20525;-78
2023/12/30 03:28:34;;;;;;;18.02;1.85;;;;;;;5.66;100.00;100990.47;5095781;28;20023;-79
2023/12/30 03:30:59;;;;;;;21.15;1.80;;;;;;;5.67;100.00;100989.44;5113334;28;20024;-79
2023/12/30 03:33:26;;;;;;;24.50;2.10;;;;;;;5.68;100.00;100983.88;5095733;28;20043;-79
2023/12/30 03:35:51;;;;;;;15.88;1.42;;;;;;;5.63;100.00;100984.41;5095011;28;20056;-79
2023/12/30 03:38:17;;;;;;;21.83;2.73;;;;;;;5.63;100.00;100975.50;5095075;28;20435;-79
2023/12/30 03:40:42;;;;;;;21.27;2.00;;;;;;;5.59;100.00;100988.47;5095318;28;20028;-79
2023/12/30 03:43:07;;;;;;;21.57;2.13;;;;;;;5.61;100.00;100978.38;5097258;28;20141;-79
2023/12/30 03:45:33;;;;;;;22.60;2.57;;;;;;;5.65;100.00;100996.88;5117573;28;20372;-79
2023/12/30 03:47:59;;;;;;;15.23;1.47;;;;;;;5.61;100.00;100991.03;5099746;28;20040;-79
2023/12/30 03:50:24;;;;;;;18.02;1.63;;;;;;;5.58;100.00;101004.81;5116791;28;20059;-79
2023/12/30 03:52:51;;;;;;;14.20;1.30;;;;;;;5.55;100.00;100995.25;5098690;28;20085;-80
2023/12/30 03:55:17;;;;;;;17.38;1.88;;;;;;;5.55;100.00;101007.84;5116999;28;20020;-79
2023/12/30 03:57:42;;;;;;;12.05;1.52;;;;;;;5.51;100.00;101001.19;5117826;28;20030;-79
2023/12/30 04:00:08;;;;;;;16.83;1.43;;;;;;;5.51;100.00;100998.50;5098752;28;20614;-80
2023/12/30 04:02:34;;;;;;;19.30;1.40;;;;;;;5.48;100.00;100993.44;5098839;28;20425;-79
2023/12/30 04:04:59;;;;;;;15.93;1.30;;;;;;;5.43;100.00;100989.44;5097934;28;20032;-79
2023/12/30 04:07:25;;;;;;;14.88;1.17;;;;;;;5.39;100.00;100990.00;5098393;28;20035;-79
2023/12/30 04:09:50;;;;;;;18.95;1.50;;;;;;;5.38;100.00;100997.19;5116855;28;20505;-79
2023/12/30 04:12:15;;;;;;;17.67;1.43;;;;;;;5.37;100.00;100992.00;5098602;28;20042;-79
2023/12/30 04:14:41;;;;;;;19.10;1.77;;;;;;;5.34;100.00;101003.94;5116339;28;20511;-79
2023/12/30 04:17:06;;;;;;;14.93;1.53;;;;;;;5.33;100.00;100987.97;5114986;28;20058;-79
2023/12/30 04:19:32;;;;;;;19.63;1.95;;;;;;;5.29;100.00;100995.59;5116541;28;20067;-79
2023/12/30 04:21:57;;;;;;;14.32;2.00;;;;;;;5.29;100.00;101000.97;5098443;28;20383;-79
2023/12/30 04:24:23;;;;;;;10.90;1.93;;;;;;;5.25;100.00;100989.69;5098923;28;20452;-79
2023/12/30 04:26:49;;;;;;;18.10;1.70;;;;;;;5.24;100.00;101001.50;5098657;28;20119;-79
2023/12/30 04:29:15;;;;;;;16.80;1.30;;;;;;;5.24;100.00;101000.66;5098098;28;20459;-79
2023/12/30 04:31:40;;;;;;;17.53;1.37;;;;;;;5.21;100.00;100998.31;5098233;28;20072;-79
2023/12/30 04:34:06;;;;;;;13.82;1.10;;;;;;;5.17;100.00;100994.31;5097881;28;20035;-79
2023/12/30 04:36:31;;;;;;;16.97;1.50;;;;;;;5.17;100.00;101000.53;5116307;28;20031;-79
2023/12/30 04:38:57;;;;;;;19.37;1.97;;;;;;;5.18;100.00;101001.34;5098064;28;20032;-80
2023/12/30 04:41:22;;;;;;;15.47;1.77;;;;;;;5.19;100.00;101005.72;5098358;28;20477;-79
2023/12/30 04:43:48;;;;;;;16.05;1.15;;;;;;;5.18;100.00;101006.72;5115714;28;20043;-79
2023/12/30 04:46:13;;;;;;;18.87;2.10;;;;;;;5.16;100.00;101006.09;5116316;28;20414;-79
2023/12/30 04:48:39;;;;;;;20.70;1.77;;;;;;;5.17;100.00;100999.69;5097939;28;20209;-79
2023/12/30 04:51:04;;;;;;;12.80;1.17;;;;;;;5.18;100.00;100998.66;5080335;28;20036;-79
2023/12/30 04:53:29;;;;;;;14.53;1.20;;;;;;;5.19;100.00;100989.59;5097705;28;20365;-79
2023/12/30 04:55:55;;;;;;;17.75;2.08;;;;;;;5.17;100.00;101003.22;5097877;28;20364;-79
2023/12/30 04:58:20;;;;;;;20.37;1.43;;;;;;;5.21;100.00;101004.53;5116409;28;20378;-79
2023/12/30 05:00:46;;;;;;;21.13;1.83;;;;;;;5.21;100.00;101012.63;5116458;28;20050;-79
2023/12/30 05:03:12;;;;;;;24.00;3.07;;;;;;;5.23;100.00;101026.72;5097701;28;20036;-80
2023/12/30 05:05:37;;;;;;;24.17;2.38;;;;;;;5.24;100.00;101017.63;5114412;28;20430;-79
2023/12/30 05:08:03;;;;;;;15.87;1.63;;;;;;;5.23;100.00;101025.88;5115799;28;20102;-80
2023/12/30 05:10:29;;;;;;;16.67;1.85;;;;;;;5.24;100.00;101030.22;5098011;28;20053;-79
2023/12/30 05:12:54;;;;;;;20.87;1.87;;;;;;;5.24;100.00;101032.91;5115877;28;20031;-79
2023/12/30 05:15:20;;;;;;;19.25;1.38;;;;;;;5.28;100.00;101026.19;5098157;28;20032;-79
2023/12/30 05:17:45;;;;;;;21.30;1.93;;;;;;;5.32;100.00;101029.38;5113801;28;20056;-79
2023/12/30 05:20:12;;;;;;;19.33;1.73;;;;;;;5.33;100.00;101044.47;5096995;28;20035;-79
2023/12/30 05:22:40;;;;;;;20.88;1.55;;;;;;;5.34;100.00;101041.63;5115902;28;20020;-79
2023/12/30 05:25:09;;;;;;;23.00;1.33;;;;;;;5.31;100.00;101041.16;5096985;28;20022;-79
2023/12/30 05:27:35;;;;;;;22.67;1.75;;;;;;;5.30;100.00;101044.84;5081033;28;20122;-79
2023/12/30 05:30:01;;;;;;;20.03;1.80;;;;;;;5.29;100.00;101046.69;5114839;28;20024;-79
2023/12/30 05:32:26;;;;;;;30.75;2.30;;;;;;;5.25;100.00;101046.19;5115148;28;20050;-80
2023/12/30 05:34:52;;;;;;;25.23;3.27;;;;;;;5.29;100.00;101043.19;5113775;28;20147;-79
2023/12/30 05:37:17;;;;;;;22.33;2.25;;;;;;;5.31;100.00;101044.66;5115109;28;20035;-80
2023/12/30 05:39:43;;;;;;;21.17;1.87;;;;;;;5.33;100.00;101044.47;5079422;28;20031;-79
2023/12/30 05:42:08;;;;;;;21.20;1.60;;;;;;;5.34;100.00;101051.56;5080908;28;20028;-79
2023/12/30 05:44:34;;;;;;;16.30;1.67;;;;;;;5.37;100.00;101056.59;5096751;28;20468;-80
2023/12/30 05:46:59;;;;;;;16.25;1.73;;;;;;;5.38;100.00;101061.78;5114417;28;20286;-80
2023/12/30 05:49:24;;;;;;;16.53;1.90;;;;;;;5.37;100.00;101054.72;5096713;28;20116;-79
2023/12/30 05:51:50;;;;;;;18.17;1.77;;;;;;;5.38;100.00;101066.34;5115001;28;20036;-80
2023/12/30 05:54:16;;;;;;;20.20;1.83;;;;;;;5.35;100.00;101062.13;5115813;28;20118;-80
2023/12/30 05:56:41;;;;;;;17.48;2.30;;;;;;;5.37;100.00;101059.28;5097679;28;20027;-79
2023/12/30 05:59:07;;;;;;;20.30;1.90;;;;;;;5.35;100.00;101055.94;5096876;28;20027;-80
2023/12/30 06:01:32;;;;;;;11.43;0.97;;;;;;;5.31;100.00;101057.28;5115168;28;20023;-79
2023/12/30 06:03:58;;;;;;;15.70;1.25;;;;;;;5.29;100.00;101064.72;5096874;28;20482;-80
2023/12/30 06:06:24;;;;;;;17.50;1.20;;;;;;;5.30;100.00;101055.59;5097180;28;20475;-80
2023/12/30 06:08:49;;;;;;;16.60;2.05;;;;;;;5.33;100.00;101064.19;5096561;28;20129;-80
2023/12/30 06:11:15;;;;;;;19.50;1.73;;;;;;;5.29;100.00;101065.53;5080239;28;20044;-80
2023/12/30 06:13:41;;;;;;;16.95;1.45;;;;;;;5.26;100.00;101061.34;5115211;28;20153;-82
2023/12/30 06:16:10;;;;;;;18.70;1.17;;;;;;;5.25;100.00;101077.66;5115200;28;20048;-79
2023/12/30 06:18:37;;;;;;;16.65;1.80;;;;;;;5.25;100.00;101070.41;5098356;28;20043;-80
2023/12/30 06:21:04;;;;;;;21.33;3.10;;;;;;;5.24;100.00;101074.13;5097397;28;20085;-79
2023/12/30 06:23:31;;;;;;;10.98;1.90;;;;;;;5.24;100.00;101071.44;5097004;28;20038;-79
2023/12/30 06:25:57;;;;;;;19.60;1.87;;;;;;;5.24;100.00;101078.66;5115542;28;20062;-79
2023/12/30 06:28:26;;;;;;;10.85;1.27;;;;;;;5.22;100.00;101083.38;5097688;28;20036;-79
2023/12/30 06:30:52;;;;;;;18.85;1.40;;;;;;;5.20;100.00;101090.81;5115074;28;20024;-80
2023/12/30 06:33:19;;;;;;;18.20;2.13;;;;;;;5.21;100.00;101096.00;5096342;28;20130;-79
2023/12/30 06:35:45;;;;;;;19.27;2.03;;;;;;;5.21;100.00;101098.69;5114280;28;20102;-79
2023/12/30 06:38:10;;;;;;;12.57;1.43;;;;;;;5.23;100.00;101083.22;5096055;28;20047;-80
2023/12/30 06:40:36;;;;;;;16.58;1.60;;;;;;;5.23;100.00;101091.28;5114065;28;20023;-80
2023/12/30 06:43:02;;;;;;;21.03;1.23;;;;;;;5.21;100.00;101089.78;5095990;28;20527;-79
2023/12/30 06:45:27;;;;;;;21.25;1.40;;;;;;;5.24;100.00;101086.72;5095807;28;20031;-79
2023/12/30 06:47:53;;;;;;;27.73;1.83;;;;;;;5.33;100.00;101093.78;5113797;28;20020;-79
2023/12/30 06:50:20;;;;;;;19.23;1.63;;;;;;;5.29;100.00;101099.69;5095484;28;20506;-79
2023/12/30 06:52:46;;;;;;;16.70;1.73;;;;;;;5.29;100.00;101086.22;5096271;28;20032;-79
2023/12/30 06:55:13;;;;;;;14.93;1.23;;;;;;;5.28;100.00;101085.38;5114403;28;20020;-79
2023/12/30 06:57:39;;;;;;;15.88;2.13;;;;;;;5.32;100.00;101088.56;5096201;28;20383;-79
2023/12/30 07:00:05;;;;;;;13.47;2.07;;;;;;;5.29;100.00;101084.38;5096001;28;20114;-78
2023/12/30 07:02:31;;;;;;;16.42;1.55;;;;;;;5.29;100.00;101081.69;5113298;28;20038;-79
2023/12/30 07:04:56;;;;;;;17.73;1.70;;;;;;;5.29;100.00;101087.06;5113599;28;20111;-79
2023/12/30 07:07:21;;;;;;;12.93;1.73;;;;;;;5.32;100.00;101080.50;5095524;28;20061;-79
2023/12/30 07:09:47;;;;;;;15.67;1.90;;;;;;;5.31;100.00;101095.78;5095449;28;20035;-79
2023/12/30 07:12:13;;;;;;;16.07;1.07;;;;;;;5.32;100.00;101086.72;5095729;28;20038;-79
2023/12/30 07:14:38;;;;;;;19.33;1.42;;;;;;;5.35;100.00;101096.28;5112526;28;20031;-83
2023/12/30 07:17:04;;;;;;;18.97;2.30;;;;;;;5.35;100.00;101105.19;5112734;28;20100;-79
2023/12/30 07:19:29;;;;;;;19.42;1.85;;;;;;;5.34;100.00;101106.19;5117680;28;20483;-79
2023/12/30 07:21:55;;;;;;;17.10;1.90;;;;;;;5.36;100.00;101097.94;5118135;28;20032;-79
2023/12/30 07:24:20;;;;;;;20.50;1.30;;;;;;;5.36;100.00;101103.31;5099279;28;20031;-79
2023/12/30 07:26:46;;;;;;;14.20;1.20;;;;;;;5.36;100.00;101101.50;5082643;28;20118;-78
2023/12/30 07:29:11;;;;;;;17.88;1.52;;;;;;;5.37;100.00;101105.00;5099841;28;20061;-78
2023/12/30 07:31:39;;;;;;;16.90;2.45;;;;;;;5.33;100.00;101098.28;5099238;28;20032;-78
2023/12/30 07:34:05;;;;;;;11.63;1.38;;;;;;;5.33;100.00;101096.47;5083084;28;20027;-79
2023/12/30 07:36:31;;;;;;;19.80;1.88;;;;;;;5.32;100.00;101110.94;5099441;28;20038;-79
2023/12/30 07:38:57;;;;;;;12.70;1.37;;;;;;;5.35;100.00;101110.56;5117425;28;20028;-78
2023/12/30 07:41:22;;;;;;;17.60;1.70;;;;;;;5.35;100.00;101107.06;5100028;28;20030;-79
2023/12/30 07:43:48;;;;;;;13.02;1.40;;;;;;;5.36;100.00;101106.88;5082612;28;20031;-78
2023/12/30 07:46:14;;;;;;;16.52;1.58;;;;;;;5.34;100.00;101119.66;5098833;28;20122;-78
2023/12/30 07:48:40;;;;;;;12.60;1.13;;;;;;;5.34;100.00;101106.19;5082096;28;20035;-79
2023/12/30 07:51:05;;;;;;;14.20;1.93;;;;;;;5.32;100.00;101108.22;5098930;28;20032;-79
2023/12/30 07:53:31;;;;;;;16.17;1.30;;;;;;;5.30;100.00;101109.41;5098623;28;20024;-78
2023/12/30 07:55:57;;;;;;;17.30;2.65;;;;;;;5.30;100.00;101114.78;5098516;28;20498;-79
2023/12/30 07:58:22;;;;;;;16.58;1.88;;;;;;;5.32;100.00;101118.16;5098998;28;20459;-79
2023/12/30 08:00:48;;;;;;;21.42;1.55;;;;;;;5.31;100.00;101127.25;5117544;28;20352;-79
2023/12/30 08:03:13;;;;;;;10.27;1.13;;;;;;;5.31;100.00;101140.69;5098743;28;20110;-79
2023/12/30 08:05:39;;;;;;;17.37;1.60;;;;;;;5.29;100.00;101135.50;5116773;28;20031;-78
2023/12/30 08:08:05;;;;;;;18.80;1.83;;;;;;;5.30;100.00;101136.31;5098704;28;20467;-79
2023/12/30 08:10:32;;;;;;;16.50;2.58;;;;;;;5.30;100.00;101149.78;5116292;28;20102;-79
2023/12/30 08:12:58;;;;;;;14.85;1.40;;;;;;;5.35;100.00;101144.72;5098598;28;20036;-78
2023/12/30 08:15:24;;;;;;;16.45;2.08;;;;;;;5.41;100.00;101139.47;5081531;28;20019;-79
2023/12/30 08:17:49;;;;;;;19.23;2.20;;;;;;;5.46;100.00;101141.63;5117069;28;20539;-78
2023/12/30 08:20:15;;;;;;;14.93;1.87;;;;;;;5.54;100.00;101146.16;5081742;28;20028;-78
2023/12/30 08:22:44;;;;;;;15.30;1.45;;;;;;;5.58;100.00;101140.25;5117242;28;20080;-78
2023/12/30 08:25:09;;;;;;;13.63;1.67;;;;;;;5.63;100.00;101137.03;5081592;28;20483;-79
2023/12/30 08:27:36;;;;;;;13.27;1.77;;;;;;;5.71;100.00;101141.53;5098993;28;20063;-78
2023/12/30 08:30:02;;;;;;;14.25;1.30;;;;;;;5.73;100.00;101150.28;5098235;28;20110;-78
2023/12/30 08:32:27;;;;;;;16.40;2.00;;;;;;;5.79;100.00;101142.31;5098274;28;20067;-79
2023/12/30 08:34:54;;;;;;;18.87;1.80;;;;;;;5.84;100.00;101144.50;5097626;28;20031;-78
2023/12/30 08:37:19;;;;;;;20.55;2.42;;;;;;;5.88;100.00;101143.13;5100139;28;20309;-79
2023/12/30 08:39:45;;;;;;;20.60;2.00;;;;;;;5.95;100.00;101144.09;5116813;28;20023;-78
2023/12/30 08:42:11;;;;;;;13.98;1.80;;;;;;;6.03;100.00;101137.84;5098240;28;20476;-79
2023/12/30 08:44:43;;;;;;;16.45;2.10;;;;;;;6.06;100.00;101133.97;5115947;28;20035;-78
2023/12/30 08:47:09;;;;;;;18.00;2.38;;;;;;;6.10;100.00;101148.75;5082041;28;20066;-78
2023/12/30 08:49:35;;;;;;;15.93;2.03;;;;;;;6.12;100.00;101144.84;5097521;28;20066;-78
2023/12/30 08:52:00;;;;;;;17.57;2.03;;;;;;;6.18;100.00;101153.25;5116722;28;20031;-79
2023/12/30 08:54:26;;;;;;;21.00;2.00;;;;;;;6.21;100.00;101147.50;5080757;28;20024;-78
2023/12/30 08:56:53;;;;;;;17.13;2.07;;;;;;;6.26;100.00;101132.47;5097418;28;20035;-79
2023/12/30 08:59:19;;;;;;;20.67;2.10;;;;;;;6.29;100.00;101142.06;5097975;28;20038;-79
2023/12/30 09:01:45;;;;;;;13.10;1.95;;;;;;;6.35;100.00;101143.16;5116297;28;20028;-79
2023/12/30 09:04:10;;;;;;;11.67;1.70;;;;;;;6.41;100.00;101142.47;5115812;28;20035;-79
2023/12/30 09:06:36;;;;;;;16.13;2.10;;;;;;;6.45;100.00;101144.63;5097860;28;20115;-79
2023/12/30 09:09:03;;;;;;;14.50;1.90;;;;;;;6.50;100.00;101146.78;5114977;28;20035;-78
2023/12/30 09:11:30;;;;;;;14.52;2.05;;;;;;;6.58;100.00;101141.28;5080657;28;20288;-79
2023/12/30 09:13:55;;;;;;;20.33;1.90;;;;;;;6.61;100.00;101148.19;5114907;28;20027;-79
2023/12/30 09:16:21;;;;;;;18.27;2.37;;;;;;;6.65;100.00;101155.72;5097013;28;20047;-79
2023/12/30 09:18:46;;;;;;;15.95;2.08;;;;;;;6.69;100.00;101164.31;5115512;28;20042;-79
2023/12/30 09:21:12;;;;;;;13.40;2.33;;;;;;;6.71;100.00;101162.25;5097326;28;20475;-79
2023/12/30 09:23:38;;;;;;;14.32;2.60;;;;;;;6.74;100.00;101161.88;5080030;28;20476;-78
2023/12/30 09:26:04;;;;;;;15.63;2.40;;;;;;;6.78;100.00;101165.91;5113811;28;20047;-79
2023/12/30 09:28:29;;;;;;;12.50;2.37;;;;;;;6.80;100.00;101169.25;5096951;28;20032;-78
2023/12/30 09:30:54;;;;;;;19.67;2.70;;;;;;;6.83;100.00;101176.97;5097147;28;20460;-78
2023/12/30 09:33:20;;;;;;;14.32;2.40;;;;;;;6.90;100.00;101178.97;5079894;28;20045;-79
2023/12/30 09:35:45;;;;;;;22.67;2.70;;;;;;;6.95;100.00;101185.47;5114813;28;20094;-78
2023/12/30 09:38:10;;;;;;;22.03;2.80;;;;;;;7.02;100.00;101180.19;5096528;28;20460;-79
2023/12/30 09:40:36;;;;;;;13.33;2.70;;;;;;;7.10;100.00;101166.63;5079385;28;20036;-79
2023/12/30 09:43:05;;;;;;;17.27;2.63;;;;;;;7.10;100.00;101174.72;5079712;28;20035;-79
2023/12/30 09:45:34;;;;;;;16.67;2.90;;;;;;;7.17;100.00;101177.50;5097261;28;20027;-78
2023/12/30 09:48:02;;;;;;;21.90;3.22;;;;;;;7.17;100.00;101183.72;5114794;28;20031;-79
2023/12/30 09:50:29;;;;;;;14.27;3.20;;;;;;;7.19;100.00;101183.56;5096539;28;20114;-79
2023/12/30 09:52:54;;;;;;;16.47;3.10;;;;;;;7.25;100.00;101177.41;5079699;28;20130;-79
2023/12/30 09:55:19;;;;;;;22.55;3.00;;;;;;;7.28;100.00;101182.44;5096424;28;20474;-78
2023/12/30 09:57:45;;;;;;;16.13;3.37;;;;;;;7.28;100.00;101174.34;5096685;28;20490;-79
2023/12/30 10:00:17;;;;;;;18.67;3.38;;;;;;;7.30;100.00;101184.97;5114288;28;20172;-79
2023/12/30 10:02:43;;;;;;;16.05;4.03;;;;;;;7.31;100.00;101182.06;5096756;28;20027;-79
2023/12/30 10:05:09;;;;;;;15.30;3.53;;;;;;;7.34;100.00;101173.59;5096188;28;20126;-79
2023/12/30 10:07:35;;;;;;;18.33;4.03;;;;;;;7.37;100.00;101173.22;5114511;28;20104;-79
2023/12/30 10:10:00;;;;;;;14.05;3.22;;;;;;;7.43;100.00;101173.53;5096233;28;20038;-78
2023/12/30 10:12:25;;;;;;;13.70;3.70;;;;;;;7.46;100.00;101170.44;5114437;28;20120;-79
2023/12/30 10:14:51;;;;;;;15.97;3.67;;;;;;;7.49;100.00;101175.47;5095949;28;20032;-79
2023/12/30 10:17:17;;;;;;;18.07;3.93;;;;;;;7.53;100.00;101179.47;5112614;28;20444;-79
2023/12/30 10:19:44;;;;;;;21.70;3.38;;;;;;;7.54;100.00;101175.72;5095917;28;20290;-79
2023/12/30 10:22:10;;;;;;;18.45;3.65;;;;;;;7.59;100.00;101184.13;5096106;28;20066;-78
2023/12/30 10:24:36;;;;;;;26.65;4.47;;;;;;;7.63;100.00;101187.25;5079220;28;20382;-79
2023/12/30 10:27:04;;;;;;;13.93;3.60;;;;;;;7.65;100.00;101182.53;5095886;28;20127;-79
2023/12/30 10:29:30;;;;;;;22.00;4.00;;;;;;;7.70;100.00;101196.31;5096053;28;20383;-78
2023/12/30 10:32:01;;;;;;;23.48;4.05;;;;;;;7.73;100.00;101191.34;5096092;28;20040;-79
2023/12/30 10:34:27;;;;;;;12.80;3.22;;;;;;;7.77;100.00;101188.28;5114154;28;20032;-78
2023/12/30 10:36:53;;;;;;;17.33;3.45;;;;;;;7.76;100.00;101194.72;5078809;28;20050;-79
2023/12/30 10:39:22;;;;;;;14.40;3.00;;;;;;;7.79;100.00;101200.56;5096456;28;20035;-79
2023/12/30 10:41:47;;;;;;;22.02;4.10;;;;;;;7.81;100.00;101193.13;5114467;28;20073;-79
2023/12/30 10:44:13;;;;;;;18.87;3.60;;;;;;;7.85;100.00;101189.03;5095363;28;20036;-79
2023/12/30 10:46:40;;;;;;;26.70;3.83;;;;;;;7.94;100.00;101192.44;5114265;28;20046;-78
2023/12/30 10:49:09;;;;;;;23.52;4.28;;;;;;;7.98;100.00;101198.31;5113441;28;20348;-78
2023/12/30 10:51:38;;;;;;;19.90;4.13;;;;;;;8.06;100.00;101192.78;5115425;28;20031;-79
2023/12/30 10:54:06;;;;;;;23.98;4.05;;;;;;;8.15;100.00;101183.53;5099601;28;20379;-79
2023/12/30 10:56:40;;;;;;;21.77;3.90;;;;;;;8.17;100.00;101183.34;5117895;28;20027;-79
2023/12/30 10:59:07;;;;;;;17.20;3.92;;;;;;;8.19;100.00;101170.47;5100276;28;20032;-79
2023/12/30 11:01:33;;;;;;;16.58;3.80;;;;;;;8.20;100.00;101175.69;5100350;28;20035;-79
2023/12/30 11:04:01;;;;;;;14.63;3.65;;;;;;;8.24;100.00;101165.34;5082806;28;20043;-79
2023/12/30 11:06:35;;;;;;;16.00;2.88;;;;;;;8.31;100.00;101162.69;5118342;28;20372;-79
2023/12/30 11:09:11;;;;;;;20.88;3.78;;;;;;;8.34;100.00;101165.00;5117024;28;20035;-78
2023/12/30 11:11:51;;;;;;;23.52;3.60;;;;;;;8.36;100.00;101163.78;5118781;28;20108;-79